Time;durP1;ratioP1;P1;durP2;ratioP2;P2;SDS_P1;SDS_P2;PMS_P1;PMS_P2;Temp;Humidity;BMP_temperature;BMP_pressure;BME280_temperature;BME280_humidity;BME280_pressure;Samples;Min_cycle;Max_cycle;Signal;HPM_P1;HPM_P2
2023/01/04 00:00:11;;;;;;;68.90;43.30;;;;;;;3.54;100.00;98357.73;108048;1259;58157;-65
2023/01/04 00:03:00;;;;;;;69.10;46.60;;;;;;;3.54;100.00;98361.00;108039;1257;69698;-65
2023/01/04 00:05:29;;;;;;;59.70;42.20;;;;;;;3.53;100.00;98362.58;108076;1263;69694;-65
2023/01/04 00:07:58;;;;;;;65.20;45.00;;;;;;;3.53;100.00;98362.05;108052;1259;69538;-65
2023/01/04 00:10:27;;;;;;;68.20;45.90;;;;;;;3.54;100.00;98357.56;108053;1263;58908;-65
2023/01/04 00:12:58;;;;;;;60.40;42.30;;;;;;;3.55;100.00;98356.48;108051;1263;58910;-65
2023/01/04 00:15:27;;;;;;;66.50;46.00;;;;;;;3.56;100.00;98360.42;108012;1259;71174;-65
2023/01/04 00:17:56;;;;;;;61.30;43.10;;;;;;;3.55;100.00;98359.75;108100;1263;69238;-65
2023/01/04 00:20:26;;;;;;;62.80;45.70;;;;;;;3.55;100.00;98363.89;108043;1263;69193;-65
2023/01/04 00:22:56;;;;;;;63.20;44.10;;;;;;;3.56;100.00;98364.92;108064;1263;58961;-64
2023/01/04 00:25:25;;;;;;;59.80;40.30;;;;;;;3.58;100.00;98366.76;108108;1259;58964;-64
2023/01/04 00:27:54;;;;;;;56.50;36.90;;;;;;;3.61;100.00;98367.89;108024;1263;70402;-66
2023/01/04 00:30:23;;;;;;;52.70;37.80;;;;;;;3.62;100.00;98365.29;108072;1262;69785;-65
2023/01/04 00:32:53;;;;;;;58.30;40.10;;;;;;;3.63;100.00;98364.38;108011;1264;69745;-65
2023/01/04 00:35:22;;;;;;;58.60;40.60;;;;;;;3.63;100.00;98366.08;108017;1260;58953;-65
2023/01/04 00:38:12;;;;;;;58.70;42.90;;;;;;;3.63;100.00;98367.29;108049;1260;58861;-65
2023/01/04 00:40:41;;;;;;;73.00;51.10;;;;;;;3.63;100.00;98366.59;108060;1260;71185;-65
2023/01/04 00:43:11;;;;;;;;;;;;;;;3.63;100.00;98363.33;108092;1264;69690;-65
2023/01/04 00:45:42;;;;;;;73.10;49.10;;;;;;;3.62;100.00;98363.36;108028;1263;68353;-65
2023/01/04 00:48:11;;;;;;;74.30;52.00;;;;;;;3.61;100.00;98367.87;108050;1263;58910;-64
2023/01/04 00:50:43;;;;;;;76.30;49.50;;;;;;;3.61;100.00;98370.65;108064;1260;58890;-64
2023/01/04 00:53:15;;;;;;;83.00;53.10;;;;;;;3.59;100.00;98369.64;108046;1264;70599;-64
2023/01/04 00:55:44;;;;;;;72.40;50.50;;;;;;;3.59;100.00;98372.42;108076;1260;67382;-63
2023/01/04 00:58:13;;;;;;;69.70;50.30;;;;;;;3.55;100.00;98379.42;108035;1264;69300;-63
2023/01/04 01:00:42;;;;;;;73.40;51.90;;;;;;;3.54;100.00;98378.59;108028;1260;58878;-63
2023/01/04 01:03:11;;;;;;;74.50;51.70;;;;;;;3.53;100.00;98377.73;108087;1257;58952;-64
2023/01/04 01:05:41;;;;;;;78.80;52.90;;;;;;;3.53;100.00;98380.50;108130;1259;71565;-64
2023/01/04 01:08:25;;;;;;;75.10;49.40;;;;;;;3.54;100.00;98383.60;108106;1263;69032;-64
2023/01/04 01:10:54;;;;;;;71.10;48.20;;;;;;;3.54;100.00;98384.43;108040;1264;69874;-64
2023/01/04 01:13:24;;;;;;;68.90;47.20;;;;;;;3.55;100.00;98384.58;108030;1263;58933;-64
2023/01/04 01:15:53;;;;;;;69.40;48.70;;;;;;;3.53;100.00;98383.77;108098;1264;58887;-64
2023/01/04 01:18:22;;;;;;;66.80;45.70;;;;;;;3.52;100.00;98378.83;108084;1259;71218;-64
2023/01/04 01:20:51;;;;;;;69.80;44.30;;;;;;;3.52;100.00;98376.59;108086;1259;69780;-65
2023/01/04 01:23:20;;;;;;;64.70;46.90;;;;;;;3.53;100.00;98375.68;108069;1268;69840;-64
2023/01/04 01:25:50;;;;;;;64.00;45.50;;;;;;;3.54;100.00;98374.10;108085;1264;58939;-64
2023/01/04 01:28:19;;;;;;;73.10;51.10;;;;;;;3.54;100.00;98370.81;108083;1264;58882;-64
2023/01/04 01:30:49;;;;;;;70.90;49.40;;;;;;;3.54;100.00;98369.94;108075;1264;70531;-64
2023/01/04 01:33:19;;;;;;;66.10;44.60;;;;;;;3.52;100.00;98367.79;108083;1264;69363;-64
2023/01/04 01:35:48;;;;;;;62.30;43.00;;;;;;;3.52;100.00;98366.59;108065;1263;69881;-66
2023/01/04 01:38:17;;;;;;;61.20;43.20;;;;;;;3.52;100.00;98365.20;108121;1264;58991;-66
2023/01/04 01:40:46;;;;;;;73.40;49.40;;;;;;;3.52;100.00;98362.61;108113;1263;58904;-65
2023/01/04 01:43:20;;;;;;;67.00;46.80;;;;;;;3.51;100.00;98361.96;108188;1259;69709;-65
2023/01/04 01:45:55;;;;;;;67.60;46.00;;;;;;;3.49;100.00;98358.04;108096;1258;68165;-64
2023/01/04 01:48:28;;;;;;;66.90;44.70;;;;;;;3.50;100.00;98359.39;108078;1263;69273;-65
2023/01/04 01:51:02;;;;;;;58.30;42.50;;;;;;;3.51;100.00;98356.09;108075;1260;58958;-64
2023/01/04 01:53:36;;;;;;;59.30;42.20;;;;;;;3.52;100.00;98359.34;108067;1263;58885;-64
2023/01/04 01:56:08;;;;;;;65.70;43.50;;;;;;;3.53;100.00;98355.00;108104;1263;69843;-64
2023/01/04 01:58:42;;;;;;;53.00;39.50;;;;;;;3.56;100.00;98355.25;108080;1260;69821;-64
2023/01/04 02:01:13;;;;;;;43.80;31.10;;;;;;;3.60;100.00;98353.59;108063;1264;68436;-64
2023/01/04 02:03:43;;;;;;;56.80;38.80;;;;;;;3.62;100.00;98351.32;108101;1263;58938;-64
2023/01/04 02:06:20;;;;;;;48.30;33.60;;;;;;;3.63;100.00;98352.48;108080;1264;58850;-64
2023/01/04 02:08:50;;;;;;;54.50;37.70;;;;;;;3.63;100.00;98352.45;108109;1260;68851;-64
2023/01/04 02:11:19;;;;;;;61.10;42.10;;;;;;;3.64;100.00;98352.79;108104;1263;69138;-64
2023/01/04 02:16:45;;;;;;;65.60;44.90;;;;;;;3.65;100.00;98354.13;108106;1260;58878;-64
2023/01/04 02:19:27;;;;;;;69.50;49.10;;;;;;;3.66;100.00;98352.21;108096;1261;58839;-64
2023/01/04 02:22:21;;;;;;;66.60;46.00;;;;;;;3.68;100.00;98352.67;108091;1260;71014;-64
2023/01/04 02:25:21;;;;;;;66.40;45.40;;;;;;;3.68;100.00;98353.01;108073;1264;68464;-64
2023/01/04 02:28:05;;;;;;;76.20;51.10;;;;;;;3.69;100.00;98351.25;108092;1263;69351;-64
2023/01/04 02:30:57;;;;;;;79.20;56.30;;;;;;;3.69;100.00;98350.55;108095;1263;58881;-64
2023/01/04 02:33:51;;;;;;;80.50;56.80;;;;;;;3.68;100.00;98356.09;108071;1263;58845;-64
2023/01/04 02:36:33;;;;;;;77.80;54.10;;;;;;;3.69;100.00;98358.84;108077;1264;70631;-64
2023/01/04 02:39:16;;;;;;;69.70;47.50;;;;;;;3.68;100.00;98360.41;108093;1263;69843;-64
2023/01/04 02:41:53;;;;;;;73.60;52.70;;;;;;;3.68;100.00;98356.46;108071;1263;69478;-64
2023/01/04 02:44:53;;;;;;;75.40;51.50;;;;;;;3.68;100.00;98357.98;108055;1259;58943;-64
2023/01/04 02:50:31;;;;;;;82.10;54.20;;;;;;;3.71;100.00;98361.02;108033;1260;70548;-64
2023/01/04 02:53:11;;;;;;;75.40;51.80;;;;;;;3.73;100.00;98362.86;108067;1264;68175;-64
2023/01/04 02:56:34;;;;;;;74.50;47.40;;;;;;;3.74;100.00;98363.67;108016;1263;69895;-64
2023/01/04 02:59:07;;;;;;;63.50;43.10;;;;;;;3.76;100.00;98359.86;108096;1263;58914;-64
2023/01/04 03:08:32;;;;;;;78.10;52.40;;;;;;;3.74;100.00;98358.87;108067;1260;68695;-64
2023/01/04 03:11:04;;;;;;;63.20;44.10;;;;;;;3.74;100.00;98355.74;108024;1259;69403;-64
2023/01/04 03:13:42;;;;;;;76.20;53.20;;;;;;;3.74;100.00;98355.05;108056;1263;58912;-64
2023/01/04 03:16:20;;;;;;;81.40;54.10;;;;;;;3.71;100.00;98357.23;108060;1263;58876;-64
2023/01/04 03:18:53;;;;;;;81.10;55.80;;;;;;;3.68;100.00;98358.20;108059;1264;71132;-64
2023/01/04 03:21:25;;;;;;;93.10;58.90;;;;;;;3.67;100.00;98358.04;108035;1264;69787;-64
2023/01/04 03:35:57;;;;;;;80.40;55.20;;;;;;;3.62;100.00;98360.27;108055;1259;69755;-64
2023/01/04 03:50:52;;;;;;;71.30;47.30;;;;;;;3.64;100.00;98358.65;108075;1264;69873;-64
2023/01/04 03:53:22;;;;;;;65.50;42.10;;;;;;;3.64;100.00;98361.06;108056;1264;69740;-64
2023/01/04 03:55:54;;;;;;;59.30;38.10;;;;;;;3.64;100.00;98359.85;108050;1263;58975;-64
2023/01/04 03:58:26;;;;;;;75.30;51.60;;;;;;;3.65;100.00;98362.75;108085;1264;58926;-64
2023/01/04 04:01:02;;;;;;;74.40;51.60;;;;;;;3.66;100.00;98360.14;108049;1260;70697;-64
2023/01/04 04:09:09;;;;;;;87.20;59.10;;;;;;;3.65;100.00;98372.06;108151;1263;58887;-64
2023/01/04 04:11:39;;;;;;;81.50;57.90;;;;;;;3.63;100.00;98372.80;108083;1264;58845;-64
2023/01/04 04:14:09;;;;;;;77.90;55.40;;;;;;;3.64;100.00;98374.66;108075;1264;69763;-64
2023/01/04 04:16:39;;;;;;;82.90;55.60;;;;;;;3.65;100.00;98376.89;108090;1264;68419;-64
2023/01/04 04:19:08;;;;;;;74.10;50.00;;;;;;;3.67;100.00;98377.38;108030;1259;69218;-65
2023/01/04 04:21:38;;;;;;;72.40;50.60;;;;;;;3.69;100.00;98378.84;108054;1263;58943;-64
2023/01/04 04:24:17;;;;;;;83.40;56.20;;;;;;;3.71;100.00;98374.84;108052;1263;58903;-64
2023/01/04 04:26:47;;;;;;;77.20;51.20;;;;;;;3.71;100.00;98376.89;108087;1261;69472;-64
2023/01/04 04:29:17;;;;;;;67.40;46.50;;;;;;;3.72;100.00;98375.48;108075;1264;68381;-65
2023/01/04 04:31:47;;;;;;;54.50;39.80;;;;;;;3.72;100.00;98379.42;108033;1264;68269;-64
2023/01/04 04:34:17;;;;;;;64.30;43.90;;;;;;;3.74;100.00;98377.48;108066;1263;58932;-64
2023/01/04 04:36:46;;;;;;;75.30;49.90;;;;;;;3.73;100.00;98380.09;108034;1263;58811;-64
2023/01/04 04:39:15;;;;;;;66.10;47.30;;;;;;;3.73;100.00;98378.56;108047;1264;71140;-64
2023/01/04 04:41:44;;;;;;;64.60;42.50;;;;;;;3.72;100.00;98375.49;108003;1261;68852;-64
2023/01/04 04:44:18;;;;;;;62.10;43.50;;;;;;;3.71;100.00;98374.98;108052;1259;67770;-64
2023/01/04 04:46:48;;;;;;;67.90;47.00;;;;;;;3.71;100.00;98369.64;108090;1264;58978;-64
2023/01/04 04:49:18;;;;;;;70.90;48.20;;;;;;;3.71;100.00;98370.52;108078;1264;58887;-64
2023/01/04 04:51:48;;;;;;;65.40;45.50;;;;;;;3.71;100.00;98370.18;108052;1264;71158;-65
2023/01/04 04:54:20;;;;;;;68.20;47.30;;;;;;;3.70;100.00;98369.85;108064;1260;68311;-64
2023/01/04 04:56:50;;;;;;;68.70;46.80;;;;;;;3.69;100.00;98367.63;108131;1263;69272;-65
2023/01/04 04:59:19;;;;;;;68.60;49.40;;;;;;;3.69;100.00;98367.81;108075;1263;58949;-64
2023/01/04 05:01:49;;;;;;;76.00;54.10;;;;;;;3.68;100.00;98367.65;108029;1264;58955;-64
2023/01/04 05:04:19;;;;;;;73.10;51.50;;;;;;;3.68;100.00;98369.05;108052;1264;70461;-64
2023/01/04 05:06:51;;;;;;;77.80;53.70;;;;;;;3.67;100.00;98367.34;108015;1264;67650;-64
2023/01/04 05:09:21;;;;;;;76.40;52.20;;;;;;;3.68;100.00;98367.83;108044;1264;67768;-65
2023/01/04 05:14:39;;;;;;;71.20;49.60;;;;;;;3.67;100.00;98374.06;108096;1264;59011;-64
2023/01/04 05:17:09;;;;;;;79.20;55.00;;;;;;;3.67;100.00;98371.83;108043;1264;69633;-64
2023/01/04 05:19:38;;;;;;;77.90;54.60;;;;;;;3.68;100.00;98371.80;108049;1263;67390;-64
2023/01/04 05:22:07;;;;;;;72.40;49.60;;;;;;;3.69;100.00;98373.32;108045;1264;69888;-65
2023/01/04 05:24:37;;;;;;;70.70;50.20;;;;;;;3.69;100.00;98377.96;108057;1264;58954;-64
2023/01/04 05:27:06;;;;;;;73.00;50.90;;;;;;;3.70;100.00;98376.41;108057;1263;58958;-64
2023/01/04 05:32:23;;;;;;;60.00;42.30;;;;;;;3.72;100.00;98383.23;108032;1264;69626;-64
2023/01/04 05:34:52;;;;;;;65.20;45.10;;;;;;;3.71;100.00;98382.39;108000;1264;69278;-64
2023/01/04 05:37:21;;;;;;;66.20;44.40;;;;;;;3.71;100.00;98388.26;108061;1264;58907;-65
2023/01/04 05:39:51;;;;;;;63.40;44.60;;;;;;;3.72;100.00;98389.25;108114;1266;58891;-64
2023/01/04 05:42:26;;;;;;;60.40;42.90;;;;;;;3.74;100.00;98392.14;108088;1263;70568;-64
2023/01/04 05:44:58;;;;;;;59.30;39.70;;;;;;;3.75;100.00;98395.55;108036;1261;67531;-65
2023/01/04 05:47:28;;;;;;;62.90;42.70;;;;;;;3.77;100.00;98399.81;108052;1263;68266;-64
2023/01/04 05:49:57;;;;;;;56.30;37.70;;;;;;;3.78;100.00;98399.06;108071;1259;58953;-64
2023/01/04 05:52:27;;;;;;;;;;;;;;;3.80;100.00;98400.75;108092;1264;58956;-65
2023/01/04 05:54:57;;;;;;;58.30;39.90;;;;;;;3.81;100.00;98405.02;108090;1264;70499;-64
2023/01/04 05:57:27;;;;;;;60.90;42.30;;;;;;;3.82;100.00;98407.23;108094;1263;68261;-66
2023/01/04 05:59:56;;;;;;;62.30;42.50;;;;;;;3.83;100.00;98411.00;108074;1263;69190;-64
2023/01/04 06:02:28;;;;;;;62.50;42.90;;;;;;;3.83;100.00;98410.48;108091;1264;58954;-64
2023/01/04 06:04:59;;;;;;;62.60;43.80;;;;;;;3.82;100.00;98413.45;108049;1263;58974;-65
2023/01/04 06:07:28;;;;;;;74.00;51.50;;;;;;;3.81;100.00;98414.17;108114;1264;69870;-65
2023/01/04 06:09:57;;;;;;;87.70;56.30;;;;;;;3.81;100.00;98414.18;108103;1264;69633;-64
2023/01/04 06:12:27;;;;;;;76.90;54.60;;;;;;;3.81;100.00;98418.98;108036;1263;68455;-64
2023/01/04 06:14:56;;;;;;;82.20;57.40;;;;;;;3.81;100.00;98420.55;108057;1264;58921;-64
2023/01/04 06:17:25;;;;;;;76.80;54.90;;;;;;;3.79;100.00;98423.70;108109;1264;58888;-64
2023/01/04 06:19:55;;;;;;;86.80;57.40;;;;;;;3.79;100.00;98422.33;108070;1263;69807;-64
2023/01/04 06:22:25;;;;;;;68.10;49.60;;;;;;;3.78;100.00;98425.98;108098;1264;70014;-64
2023/01/04 06:24:55;;;;;;;75.90;50.70;;;;;;;3.78;100.00;98425.64;108046;1263;68300;-64
2023/01/04 06:27:24;;;;;;;86.10;59.50;;;;;;;3.79;100.00;98427.33;108023;1263;59013;-65
2023/01/04 06:29:53;;;;;;;80.90;59.40;;;;;;;3.79;100.00;98432.52;108126;1265;58849;-64
2023/01/04 06:32:22;;;;;;;84.90;59.20;;;;;;;3.79;100.00;98436.98;108044;1263;71187;-64
2023/01/04 06:34:51;;;;;;;75.90;54.40;;;;;;;3.79;100.00;98438.19;108067;1264;69662;-64
2023/01/04 06:37:21;;;;;;;76.20;52.10;;;;;;;3.81;100.00;98438.48;108074;1266;69756;-64
2023/01/04 06:39:50;;;;;;;69.40;48.30;;;;;;;3.82;100.00;98437.94;108058;1264;58952;-64
2023/01/04 06:45:07;;;;;;;78.00;53.40;;;;;;;3.82;100.00;98444.11;108056;1266;70875;-63
2023/01/04 06:47:36;;;;;;;78.80;51.80;;;;;;;3.84;100.00;98446.51;108028;1264;69700;-63
2023/01/04 06:50:06;;;;;;;69.40;48.00;;;;;;;3.85;100.00;98451.49;108059;1265;69900;-63
2023/01/04 06:52:35;;;;;;;76.50;53.90;;;;;;;3.86;100.00;98446.78;108019;1264;58874;-64
2023/01/04 06:55:08;;;;;;;75.50;51.00;;;;;;;3.87;100.00;98445.02;108021;1266;58930;-64
2023/01/04 06:57:37;;;;;;;70.60;48.60;;;;;;;3.88;100.00;98443.08;108059;1264;71412;-64
2023/01/04 07:00:07;;;;;;;74.80;52.10;;;;;;;3.90;100.00;98440.14;108055;1264;69086;-64
2023/01/04 07:02:36;;;;;;;90.20;62.40;;;;;;;3.91;100.00;98434.05;108034;1263;68434;-64
2023/01/04 07:05:06;;;;;;;104.00;71.10;;;;;;;3.91;100.00;98435.61;108049;1263;58961;-63
2023/01/04 07:07:35;;;;;;;72.90;53.50;;;;;;;3.91;100.00;98450.42;108037;1264;58890;-64
2023/01/04 07:10:04;;;;;;;67.20;49.00;;;;;;;3.94;100.00;98459.52;108036;1262;70568;-64
2023/01/04 07:12:38;;;;;;;64.60;44.00;;;;;;;3.96;100.00;98464.44;108046;1264;69346;-64
2023/01/04 07:15:08;;;;;;;53.80;38.40;;;;;;;3.98;100.00;98468.02;108062;1269;69865;-64
2023/01/04 07:17:57;;;;;;;62.60;45.10;;;;;;;3.99;100.00;98465.20;108008;1264;59039;-64
2023/01/04 07:20:26;;;;;;;66.10;46.80;;;;;;;4.02;100.00;98464.44;108024;1264;58871;-63
2023/01/04 07:22:54;;;;;;;64.90;47.20;;;;;;;4.04;100.00;98463.83;108052;1263;70772;-64
2023/01/04 07:25:23;;;;;;;57.20;39.70;;;;;;;4.06;100.00;98474.11;108018;1263;69826;-64
2023/01/04 07:27:52;;;;;;;71.70;47.10;;;;;;;4.08;100.00;98480.28;107994;1264;69138;-64
2023/01/04 07:30:22;;;;;;;68.60;48.20;;;;;;;4.10;100.00;98483.33;108002;1264;58891;-65
2023/01/04 07:32:52;;;;;;;;;;;;;;;4.10;100.00;98483.86;108042;1264;58966;-65
2023/01/04 07:35:23;;;;;;;98.30;65.20;;;;;;;4.07;100.00;98486.02;108126;1267;70511;-63
2023/01/04 07:37:52;;;;;;;82.10;53.10;;;;;;;4.04;100.00;98481.25;108083;1264;68533;-65
2023/01/04 07:40:26;;;;;;;67.90;47.60;;;;;;;4.04;100.00;98480.92;108045;1263;70005;-65
2023/01/04 07:42:57;;;;;;;80.00;53.50;;;;;;;4.07;100.00;98482.37;108004;1266;58903;-65
2023/01/04 07:45:27;;;;;;;77.90;53.90;;;;;;;4.13;100.00;98485.85;108102;1262;58916;-63
2023/01/04 07:47:57;;;;;;;74.80;49.00;;;;;;;4.17;100.00;98482.63;108068;1263;70860;-65
2023/01/04 07:50:26;;;;;;;67.20;42.70;;;;;;;4.22;100.00;98483.69;108062;1264;69210;-65
2023/01/04 07:52:56;;;;;;;64.70;42.40;;;;;;;4.26;100.00;98486.67;108107;1260;69154;-63
2023/01/04 07:55:24;;;;;;;58.20;40.70;;;;;;;4.31;100.00;98490.48;108023;1264;58897;-63
2023/01/04 07:57:53;;;;;;;75.80;48.20;;;;;;;4.34;100.00;98489.34;108114;1264;58864;-65
2023/01/04 08:00:22;;;;;;;69.80;47.00;;;;;;;4.34;100.00;98489.34;108099;1264;69904;-65
2023/01/04 08:02:51;;;;;;;62.00;40.50;;;;;;;4.37;100.00;98489.43;108097;1260;69233;-65
2023/01/04 08:05:21;;;;;;;64.80;40.90;;;;;;;4.38;100.00;98490.79;108036;1266;69220;-65
2023/01/04 08:07:51;;;;;;;62.80;40.80;;;;;;;4.40;100.00;98488.48;107597;1265;543546;-65
2023/01/04 08:10:20;;;;;;;66.30;38.60;;;;;;;4.38;100.00;98487.86;108061;1264;58964;-65
2023/01/04 08:12:49;;;;;;;72.40;41.60;;;;;;;4.40;100.00;98490.53;108068;1264;70559;-65
2023/01/04 08:15:18;;;;;;;78.80;42.60;;;;;;;4.44;100.00;98489.05;108053;1269;68615;-65
2023/01/04 08:17:47;;;;;;;91.90;47.60;;;;;;;4.46;100.00;98492.10;108078;1264;68283;-65
2023/01/04 08:20:16;;;;;;;64.10;41.50;;;;;;;4.43;100.00;98495.95;108059;1264;58965;-63
2023/01/04 08:22:45;;;;;;;68.70;41.90;;;;;;;4.45;100.00;98499.02;108046;1264;58906;-63
2023/01/04 08:25:14;;;;;;;57.60;36.00;;;;;;;4.58;100.00;98502.56;108061;1264;70401;-63
2023/01/04 08:27:43;;;;;;;76.00;44.70;;;;;;;4.69;100.00;98503.64;108030;1267;69810;-63
2023/01/04 08:30:12;;;;;;;58.40;36.40;;;;;;;4.71;100.00;98505.64;108008;1263;69783;-64
2023/01/04 08:32:41;;;;;;;54.20;33.50;;;;;;;4.69;100.00;98508.63;108049;1264;58924;-64
2023/01/04 08:35:10;;;;;;;46.70;30.50;;;;;;;4.73;100.00;98508.85;108055;1264;58874;-64
2023/01/04 08:37:39;;;;;;;50.80;31.30;;;;;;;4.79;100.00;98510.05;108014;1264;71524;-63
2023/01/04 08:40:08;;;;;;;55.50;35.10;;;;;;;4.83;100.00;98511.28;108045;1264;69492;-63
2023/01/04 08:42:37;;;;;;;61.70;35.70;;;;;;;4.86;100.00;98514.64;108040;1264;68286;-64
2023/01/04 08:45:12;;;;;;;59.90;34.10;;;;;;;4.89;100.00;98514.90;108082;1260;58966;-64
2023/01/04 08:47:41;;;;;;;58.10;35.20;;;;;;;4.90;100.00;98516.77;108064;1264;58890;-65
2023/01/04 08:50:10;;;;;;;64.60;37.70;;;;;;;4.92;100.00;98513.76;108017;1268;70388;-65
2023/01/04 08:52:40;;;;;;;61.50;35.20;;;;;;;4.97;100.00;98519.65;108089;1264;69799;-65
2023/01/04 08:55:09;;;;;;;65.60;37.00;;;;;;;5.03;100.00;98521.35;108118;1264;69094;-65
2023/01/04 08:57:43;;;;;;;58.70;37.40;;;;;;;5.07;100.00;98523.28;108032;1269;58951;-65
2023/01/04 09:00:13;;;;;;;61.40;36.90;;;;;;;5.11;100.00;98520.92;108065;1264;58890;-65
2023/01/04 09:02:42;;;;;;;67.50;41.60;;;;;;;5.15;100.00;98521.14;108063;1264;71108;-65
2023/01/04 09:05:11;;;;;;;71.30;37.00;;;;;;;5.18;100.00;98520.52;108035;1264;69104;-64
2023/01/04 09:07:51;;;;;;;53.90;33.80;;;;;;;5.19;100.00;98517.53;108027;1264;69294;-65
2023/01/04 09:10:19;;;;;;;49.00;28.30;;;;;;;5.16;100.00;98510.37;108096;1265;58943;-65
2023/01/04 09:12:48;;;;;;;52.10;35.80;;;;;;;5.22;100.00;98510.52;108066;1264;58897;-65
2023/01/04 09:15:17;;;;;;;125.30;47.80;;;;;;;5.25;100.00;98506.30;108125;1264;70578;-65
2023/01/04 09:17:48;;;;;;;98.00;47.60;;;;;;;5.26;100.00;98507.11;108114;1264;69027;-65
2023/01/04 09:20:37;;;;;;;80.50;42.00;;;;;;;5.24;100.00;98500.44;108076;1264;69582;-64
2023/01/04 09:23:06;;;;;;;67.50;41.10;;;;;;;5.25;100.00;98495.39;108044;1264;58950;-64
2023/01/04 09:25:38;;;;;;;74.40;41.20;;;;;;;5.32;100.00;98486.64;108054;1269;58897;-65
2023/01/04 09:28:07;;;;;;;65.90;38.30;;;;;;;5.43;100.00;98481.61;108012;1264;71086;-65
2023/01/04 09:30:36;;;;;;;60.20;38.20;;;;;;;5.54;100.00;98480.53;108064;1264;69168;-64
2023/01/04 09:33:05;;;;;;;64.80;39.10;;;;;;;5.67;100.00;98479.21;108106;1264;68609;-65
2023/01/04 09:35:34;;;;;;;65.40;40.90;;;;;;;5.78;100.00;98472.77;108090;1264;58963;-64
2023/01/04 09:38:03;;;;;;;65.60;41.60;;;;;;;5.82;100.00;98468.98;108108;1262;58909;-65
2023/01/04 09:41:04;;;;;;;73.50;44.00;;;;;;;5.81;100.00;98466.05;108071;1264;70574;-65
2023/01/04 09:43:58;;;;;;;66.90;39.80;;;;;;;5.76;100.00;98463.85;108085;1265;68368;-65
2023/01/04 09:46:54;;;;;;;74.40;41.30;;;;;;;5.79;100.00;98459.08;108035;1259;69702;-65
2023/01/04 09:49:28;;;;;;;62.80;36.90;;;;;;;5.85;100.00;98456.58;108068;1263;58907;-65
2023/01/04 09:52:02;;;;;;;58.80;35.80;;;;;;;5.90;100.00;98448.80;108024;1259;58961;-64
2023/01/04 09:54:50;;;;;;;54.80;34.00;;;;;;;6.03;100.00;98444.70;108065;1264;71056;-64
2023/01/04 09:57:24;;;;;;;57.20;36.30;;;;;;;6.22;100.00;98446.22;108113;1259;69752;-65
2023/01/04 10:00:01;;;;;;;51.90;33.20;;;;;;;6.31;100.00;98439.45;108096;1264;69627;-65
2023/01/04 10:02:43;;;;;;;48.20;32.40;;;;;;;6.42;100.00;98433.64;108063;1264;58971;-65
2023/01/04 10:05:20;;;;;;;52.70;32.80;;;;;;;6.57;100.00;98429.23;108110;1264;58939;-64
2023/01/04 10:07:49;;;;;;;44.10;28.70;;;;;;;6.73;100.00;98432.08;108098;1264;70477;-64
2023/01/04 10:10:28;;;;;;;47.80;30.50;;;;;;;6.96;100.00;98427.98;108068;1264;68305;-64
2023/01/04 10:13:14;;;;;;;44.00;30.20;;;;;;;7.16;100.00;98430.07;108083;1264;69269;-64
2023/01/04 10:16:12;;;;;;;39.10;26.20;;;;;;;7.31;100.00;98430.80;108072;1259;58887;-64
2023/01/04 10:19:00;;;;;;;34.20;24.30;;;;;;;7.39;100.00;98428.23;108020;1264;58890;-65
2023/01/04 10:21:55;;;;;;;28.70;20.00;;;;;;;7.39;100.00;98427.69;108027;1264;71173;-65
2023/01/04 10:24:33;;;;;;;31.90;22.80;;;;;;;7.39;100.00;98428.58;108082;1260;67334;-65
2023/01/04 10:27:13;;;;;;;30.70;22.20;;;;;;;7.38;100.00;98430.86;108036;1263;69211;-65
2023/01/04 10:30:03;;;;;;;32.40;22.30;;;;;;;7.33;100.00;98431.97;108188;1264;58924;-64
2023/01/04 10:32:42;;;;;;;27.40;20.70;;;;;;;7.31;100.00;98437.75;108450;1265;58900;-65
2023/01/04 10:35:24;;;;;;;24.60;18.80;;;;;;;7.31;100.00;98435.50;108078;1263;71198;-65
2023/01/04 10:38:02;;;;;;;31.20;21.80;;;;;;;7.27;99.82;98425.45;108091;1264;68224;-65
2023/01/04 10:40:36;;;;;;;25.80;19.10;;;;;;;7.35;99.90;98424.40;108075;1263;69129;-66
2023/01/04 10:43:33;;;;;;;17.20;13.20;;;;;;;7.28;98.18;98431.29;108012;1267;59009;-66
2023/01/04 10:46:34;;;;;;;19.10;14.80;;;;;;;7.32;96.29;98430.77;108004;1264;58865;-65
2023/01/04 10:49:15;;;;;;;22.80;17.40;;;;;;;7.41;97.69;98433.33;108066;1260;71129;-65
2023/01/04 10:52:02;;;;;;;21.50;15.50;;;;;;;7.51;97.95;98435.12;108081;1264;69852;-65
2023/01/04 10:54:40;;;;;;;16.00;13.60;;;;;;;7.60;97.30;98431.82;108004;1263;69791;-66
2023/01/04 10:57:19;;;;;;;17.20;13.70;;;;;;;7.66;97.05;98431.02;108015;1264;58959;-65
2023/01/04 11:00:07;;;;;;;18.90;16.10;;;;;;;7.73;96.31;98427.24;108039;1267;58901;-65
2023/01/04 11:02:56;;;;;;;21.20;15.20;;;;;;;7.80;96.60;98426.05;108059;1264;70076;-65
2023/01/04 11:05:56;;;;;;;16.10;12.50;;;;;;;7.90;96.29;98426.65;108051;1264;69127;-66
2023/01/04 11:08:35;;;;;;;17.10;14.50;;;;;;;8.01;94.16;98421.63;108064;1264;69113;-66
2023/01/04 11:11:18;;;;;;;18.80;14.30;;;;;;;8.09;92.37;98419.15;108001;1265;58900;-65
2023/01/04 11:13:53;;;;;;;19.80;15.70;;;;;;;8.11;91.38;98411.75;108071;1264;59328;-66
2023/01/04 11:16:22;;;;;;;18.20;13.60;;;;;;;8.13;89.98;98404.55;108029;1264;70830;-66
2023/01/04 11:18:51;;;;;;;18.10;13.80;;;;;;;8.12;88.69;98397.14;108034;1264;68547;-65
2023/01/04 11:21:26;;;;;;;15.10;12.60;;;;;;;8.36;90.02;98393.08;108091;1264;69780;-65
2023/01/04 11:24:00;;;;;;;17.00;14.10;;;;;;;8.49;89.10;98394.85;108007;1264;58916;-65
2023/01/04 11:26:52;;;;;;;15.10;12.30;;;;;;;8.47;87.81;98394.13;108047;1264;58915;-65
2023/01/04 11:29:48;;;;;;;23.30;18.70;;;;;;;8.52;88.11;98397.14;108081;1263;71050;-65
2023/01/04 11:32:29;;;;;;;23.00;17.80;;;;;;;8.41;88.89;98393.70;108049;1264;69047;-65
2023/01/04 11:34:58;;;;;;;20.10;15.60;;;;;;;8.42;90.07;98390.36;108018;1259;69158;-64
2023/01/04 11:37:29;;;;;;;18.50;15.70;;;;;;;8.38;89.26;98387.40;108008;1264;58934;-64
2023/01/04 11:40:17;;;;;;;23.80;19.00;;;;;;;8.25;87.69;98390.29;108060;1264;58914;-64
2023/01/04 11:43:10;;;;;;;24.00;18.30;;;;;;;8.27;89.49;98387.05;108033;1264;69791;-64
2023/01/04 11:45:38;;;;;;;23.20;18.80;;;;;;;8.17;90.10;98387.03;108028;1264;68727;-64
2023/01/04 11:48:13;;;;;;;22.10;18.00;;;;;;;8.20;90.49;98384.81;108013;1260;69712;-64
2023/01/04 11:50:47;;;;;;;23.10;17.50;;;;;;;8.15;90.55;98388.98;108025;1264;58880;-64
2023/01/04 11:53:25;;;;;;;21.00;16.50;;;;;;;8.22;89.57;98384.88;107999;1264;58909;-64
2023/01/04 11:56:12;;;;;;;20.10;17.10;;;;;;;8.24;88.95;98387.20;107989;1264;71204;-64
2023/01/04 11:58:44;;;;;;;20.80;17.20;;;;;;;8.18;89.37;98386.09;108055;1264;69652;-64
2023/01/04 12:01:24;;;;;;;18.20;14.60;;;;;;;7.99;88.46;98393.75;108027;1264;68160;-64
2023/01/04 12:03:53;;;;;;;20.10;16.20;;;;;;;8.04;89.76;98388.33;108036;1264;58905;-64
2023/01/04 12:06:45;;;;;;;23.10;18.10;;;;;;;8.06;89.63;98385.11;108036;1264;58947;-65
2023/01/04 12:09:16;;;;;;;23.70;19.60;;;;;;;8.13;89.81;98379.70;108004;1264;70476;-65
2023/01/04 12:12:00;;;;;;;24.10;18.40;;;;;;;8.06;89.68;98377.79;108030;1260;69551;-65
2023/01/04 12:14:35;;;;;;;25.10;20.30;;;;;;;7.88;90.18;98377.95;107985;1263;69094;-65
2023/01/04 12:17:06;;;;;;;40.30;28.60;;;;;;;7.78;90.39;98379.11;107997;1264;58932;-65
2023/01/04 12:19:39;;;;;;;48.10;35.80;;;;;;;7.59;91.64;98386.73;108045;1264;58890;-65
2023/01/04 12:22:37;;;;;;;25.10;20.00;;;;;;;7.54;91.65;98388.85;108038;1264;70485;-65
2023/01/04 12:25:36;;;;;;;24.60;18.60;;;;;;;7.51;91.81;98386.08;108048;1264;69142;-65
2023/01/04 12:28:05;;;;;;;23.00;18.60;;;;;;;7.56;92.17;98379.40;107978;1259;68303;-65
2023/01/04 12:30:45;;;;;;;25.20;20.00;;;;;;;7.63;93.05;98374.40;107996;1263;58865;-66
2023/01/04 12:33:29;;;;;;;25.40;20.30;;;;;;;7.73;91.79;98369.82;108025;1264;58906;-65